createdAt,value
2019-04-11T00:00:17.469Z,9.78
2019-04-11T00:05:14.719Z,10.45
2019-04-11T00:07:43.305Z,10.48
2019-04-11T00:10:12.415Z,9.85
2019-04-11T00:12:41.003Z,10.23
2019-04-11T00:15:10.628Z,9.78
2019-04-11T00:17:39.226Z,9.85
2019-04-11T00:20:07.759Z,10.05
2019-04-11T00:22:37.416Z,10.38
2019-04-11T00:25:07.061Z,12.55
2019-04-11T00:27:37.131Z,8.63
2019-04-11T00:30:08.086Z,12.00
2019-04-11T00:32:36.580Z,9.95
2019-04-11T00:35:07.037Z,11.15
2019-04-11T00:37:36.827Z,8.20
2019-04-11T00:40:06.879Z,12.30
2019-04-11T00:42:36.731Z,11.83
2019-04-11T00:45:07.421Z,10.60
2019-04-11T00:47:38.164Z,10.68
2019-04-11T00:50:07.379Z,10.00
2019-04-11T00:52:37.128Z,11.95
2019-04-11T00:55:07.081Z,12.70
2019-04-11T00:57:35.626Z,11.22
2019-04-11T01:00:06.928Z,10.13
2019-04-11T01:02:35.975Z,10.80
2019-04-11T01:05:07.460Z,12.13
2019-04-11T01:07:36.059Z,11.40
2019-04-11T01:10:06.745Z,13.32
2019-04-11T01:12:36.467Z,12.25
2019-04-11T01:15:09.893Z,10.18
2019-04-11T01:17:39.229Z,13.22
2019-04-11T01:20:09.511Z,12.20
2019-04-11T01:22:38.377Z,13.45
2019-04-11T01:25:08.427Z,13.62
2019-04-11T01:27:39.423Z,12.03
2019-04-11T01:30:11.705Z,14.63
2019-04-11T01:32:40.299Z,13.00
2019-04-11T01:35:08.995Z,14.78
2019-04-11T01:37:38.447Z,14.78
2019-04-11T01:40:07.797Z,15.05
2019-04-11T01:42:37.524Z,14.70
2019-04-11T01:45:07.480Z,13.18
2019-04-11T01:47:40.528Z,12.93
2019-04-11T01:50:10.619Z,12.93
2019-04-11T01:52:42.494Z,16.55
2019-04-11T01:55:12.291Z,14.13
2019-04-11T01:57:40.814Z,13.90
2019-04-11T02:00:12.291Z,13.53
2019-04-11T02:02:48.332Z,13.90
2019-04-11T02:05:25.177Z,12.98
2019-04-11T02:07:53.760Z,13.13
2019-04-11T02:10:22.734Z,15.95
2019-04-11T02:12:51.199Z,13.38
2019-04-11T02:15:19.930Z,14.95
2019-04-11T02:17:48.790Z,15.55
2019-04-11T02:20:17.623Z,14.60
2019-04-11T02:22:54.863Z,15.55
2019-04-11T02:25:28.288Z,16.90
2019-04-11T02:27:58.099Z,14.83
2019-04-11T02:30:27.909Z,15.00
2019-04-11T02:32:58.288Z,17.37
2019-04-11T02:35:28.908Z,16.00
2019-04-11T02:37:59.150Z,16.55
2019-04-11T02:40:29.952Z,16.02
2019-04-11T02:42:59.411Z,15.30
2019-04-11T02:45:43.831Z,15.83
2019-04-11T02:47:59.394Z,17.30
2019-04-11T02:50:29.744Z,17.45
2019-04-11T02:52:58.638Z,18.75
2019-04-11T02:55:29.391Z,19.10
2019-04-11T02:57:59.749Z,16.32
2019-04-11T03:00:29.194Z,18.82
2019-04-11T03:02:59.423Z,19.52
2019-04-11T03:05:30.909Z,16.07
2019-04-11T03:08:01.162Z,16.82
2019-04-11T03:10:31.305Z,17.15
2019-04-11T03:13:00.880Z,18.42
2019-04-11T03:15:46.120Z,17.52
2019-04-11T03:18:02.923Z,18.95
2019-04-11T03:20:38.258Z,19.70
2019-04-11T03:23:05.105Z,20.10
2019-04-11T03:25:32.961Z,19.70
2019-04-11T03:28:02.084Z,21.65
2019-04-11T03:30:46.502Z,18.15
2019-04-11T03:33:57.857Z,20.77
2019-04-11T03:38:23.115Z,19.45
2019-04-11T03:40:52.036Z,19.52
2019-04-11T03:43:17.695Z,19.32
2019-04-11T03:45:52.700Z,21.23
2019-04-11T03:48:20.509Z,24.15
2019-04-11T03:50:36.646Z,22.37
2019-04-11T03:53:06.566Z,21.15
2019-04-11T03:55:36.758Z,20.20
2019-04-11T03:58:08.380Z,20.70
2019-04-11T04:00:42.495Z,21.80
2019-04-11T04:03:09.283Z,20.50
2019-04-11T04:05:39.073Z,19.20
2019-04-11T04:08:08.902Z,18.25
2019-04-11T04:10:39.567Z,21.62
2019-04-11T04:13:14.198Z,21.82
2019-04-11T04:16:04.208Z,22.82
2019-04-11T04:18:27.701Z,21.10
2019-04-11T04:20:59.709Z,20.02
2019-04-11T04:23:31.464Z,20.32
2019-04-11T04:26:01.791Z,20.30
2019-04-11T04:28:32.128Z,20.80
2019-04-11T04:31:02.113Z,21.40
2019-04-11T04:33:32.677Z,19.25
2019-04-11T04:36:04.458Z,22.35
2019-04-11T04:38:33.751Z,21.97
2019-04-11T04:41:16.713Z,22.60
2019-04-11T04:43:36.431Z,23.90
2019-04-11T04:46:23.743Z,18.80
2019-04-11T04:48:35.738Z,21.85
2019-04-11T04:51:08.983Z,22.35
2019-04-11T04:53:35.542Z,20.92
2019-04-11T04:56:06.722Z,22.20
2019-04-11T04:58:37.651Z,24.35
2019-04-11T05:01:07.039Z,22.62
2019-04-11T05:03:35.829Z,23.20
2019-04-11T05:06:04.590Z,21.52
2019-04-11T05:08:34.590Z,20.92
2019-04-11T05:11:04.525Z,20.48
2019-04-11T05:13:34.439Z,20.37
2019-04-11T05:16:13.091Z,23.20
2019-04-11T05:18:34.235Z,22.70
2019-04-11T05:21:03.340Z,23.42
2019-04-11T05:23:32.196Z,23.15
2019-04-11T05:26:01.645Z,23.77
2019-04-11T05:28:30.406Z,23.83
2019-04-11T05:31:00.452Z,20.62
2019-04-11T05:33:29.404Z,24.50
2019-04-11T05:35:58.547Z,23.25
2019-04-11T05:38:27.387Z,17.35
2019-04-11T05:40:56.684Z,21.52
2019-04-11T05:43:29.250Z,22.30
2019-04-11T05:45:58.203Z,23.25
2019-04-11T05:48:39.042Z,21.82
2019-04-11T05:51:08.787Z,22.98
2019-04-11T05:53:38.670Z,23.38
2019-04-11T05:56:09.149Z,21.57
2019-04-11T05:58:43.301Z,20.35
2019-04-11T06:01:29.092Z,24.92
2019-04-11T06:04:00.421Z,22.77
2019-04-11T06:06:39.078Z,20.48
2019-04-11T06:09:10.452Z,19.15
2019-04-11T06:12:05.388Z,19.90
2019-04-11T06:14:39.626Z,22.02
2019-04-11T06:17:11.319Z,21.27
2019-04-11T06:19:59.780Z,21.10
2019-04-11T06:22:29.465Z,19.95
2019-04-11T06:25:06.718Z,19.45
2019-04-11T06:27:40.106Z,21.23
2019-04-11T06:30:10.261Z,20.00
2019-04-11T06:32:40.497Z,18.62
2019-04-11T06:35:19.873Z,18.55
2019-04-11T06:37:45.491Z,20.72
2019-04-11T06:40:34.715Z,18.07
2019-04-11T06:43:11.852Z,22.25
2019-04-11T06:45:46.201Z,20.32
2019-04-11T06:48:16.362Z,20.02
2019-04-11T06:51:01.857Z,21.02
2019-04-11T06:53:32.220Z,14.53
2019-04-11T06:56:12.511Z,19.20
2019-04-11T06:58:43.680Z,17.87
2019-04-11T07:01:14.067Z,18.25
2019-04-11T07:03:44.995Z,19.50
2019-04-11T07:06:18.037Z,22.07
2019-04-11T07:08:49.021Z,17.37
2019-04-11T07:11:25.526Z,13.40
2019-04-11T07:14:01.916Z,16.30
2019-04-11T07:16:31.871Z,8.78
2019-04-11T07:19:02.838Z,17.80
2019-04-11T07:21:33.413Z,13.25
2019-04-11T07:24:20.313Z,14.33
2019-04-11T07:26:50.062Z,14.13
2019-04-11T07:29:26.222Z,18.25
2019-04-11T07:32:02.749Z,22.80
2019-04-11T07:34:47.912Z,15.32
2019-04-11T07:37:36.460Z,18.02
2019-04-11T07:40:13.225Z,21.40
2019-04-11T07:42:52.954Z,16.50
2019-04-11T07:45:29.937Z,17.40
2019-04-11T07:48:03.046Z,13.93
2019-04-11T07:50:35.399Z,13.00
2019-04-11T07:53:05.153Z,14.87
2019-04-11T07:55:34.433Z,18.32
2019-04-11T07:58:23.809Z,16.90
2019-04-11T08:01:03.749Z,19.32
2019-04-11T08:03:33.899Z,12.60
2019-04-11T08:06:07.527Z,13.70
2019-04-11T08:08:47.151Z,18.80
2019-04-11T08:11:23.538Z,18.62
2019-04-11T08:14:13.820Z,21.57
2019-04-11T08:16:49.771Z,16.62
2019-04-11T08:19:36.726Z,16.93
2019-04-11T08:22:19.504Z,18.27
2019-04-11T08:24:53.194Z,17.07
2019-04-11T08:27:53.072Z,17.17
2019-04-11T08:30:12.793Z,17.90
2019-04-11T08:32:49.728Z,18.60
2019-04-11T08:35:30.166Z,19.77
2019-04-11T08:38:04.498Z,7.45
2019-04-11T08:40:37.735Z,17.48
2019-04-11T08:43:08.037Z,19.70
2019-04-11T08:45:38.845Z,20.23
2019-04-11T08:48:09.063Z,17.45
2019-04-11T08:50:42.824Z,18.98
2019-04-11T08:53:13.157Z,17.42
2019-04-11T08:55:51.954Z,18.75
2019-04-11T08:58:20.496Z,16.90
2019-04-11T09:00:51.183Z,14.55
2019-04-11T09:03:31.437Z,18.82
2019-04-11T09:06:08.446Z,16.62
2019-04-11T09:08:38.873Z,17.67
2019-04-11T09:11:09.175Z,16.40
2019-04-11T09:13:48.063Z,18.70
2019-04-11T09:16:25.757Z,18.60
2019-04-11T09:18:58.193Z,16.73
2019-04-11T09:21:44.626Z,15.72
2019-04-11T09:24:15.415Z,17.92
2019-04-11T09:27:04.439Z,15.58
2019-04-11T09:29:34.716Z,17.12
2019-04-11T09:32:22.164Z,18.60
2019-04-11T09:34:52.545Z,17.32
2019-04-11T09:37:22.068Z,16.07
2019-04-11T09:39:53.160Z,18.30
2019-04-11T09:42:39.733Z,17.02
2019-04-11T09:45:11.033Z,15.75
2019-04-11T09:47:43.993Z,18.67
2019-04-11T09:50:30.036Z,16.20
2019-04-11T09:52:59.884Z,17.02
2019-04-11T09:55:46.170Z,13.78
2019-04-11T09:58:31.646Z,15.18
2019-04-11T10:01:04.580Z,18.07
2019-04-11T10:03:35.054Z,12.30
2019-04-11T10:06:21.603Z,16.87
2019-04-11T10:09:01.807Z,10.38
2019-04-11T10:11:38.054Z,16.30
2019-04-11T10:14:11.488Z,17.00
2019-04-11T10:16:48.652Z,14.58
2019-04-11T10:19:20.025Z,17.30
2019-04-11T10:22:08.938Z,10.13
2019-04-11T10:24:51.443Z,18.17
2019-04-11T10:27:22.577Z,14.13
2019-04-11T10:30:09.149Z,11.35
2019-04-11T10:32:39.555Z,18.95
2019-04-11T10:35:26.398Z,14.70
2019-04-11T10:37:56.023Z,16.05
2019-04-11T10:40:26.421Z,16.20
2019-04-11T10:42:55.906Z,16.67
2019-04-11T10:45:32.120Z,14.10
2019-04-11T10:48:01.207Z,16.07
2019-04-11T10:50:37.735Z,15.85
2019-04-11T10:53:06.878Z,21.05
2019-04-11T10:55:49.574Z,17.15
2019-04-11T10:58:26.749Z,16.12
2019-04-11T11:01:07.426Z,15.25
2019-04-11T11:03:55.866Z,15.48
2019-04-11T11:06:27.394Z,13.15
2019-04-11T11:08:57.633Z,14.55
2019-04-11T11:11:32.812Z,18.85
2019-04-11T11:14:22.751Z,14.43
2019-04-11T11:16:56.629Z,16.17
2019-04-11T11:22:18.916Z,15.08
2019-04-11T11:25:11.664Z,15.58
2019-04-11T11:27:39.400Z,10.53
2019-04-11T11:30:10.825Z,15.83
2019-04-11T11:32:39.446Z,17.62
2019-04-11T11:35:10.729Z,17.45
2019-04-11T11:37:47.151Z,13.25
2019-04-11T11:40:23.777Z,17.45
2019-04-11T11:43:08.948Z,17.35
2019-04-11T11:45:39.491Z,11.08
2019-04-11T11:48:35.548Z,16.42
2019-04-11T11:51:08.934Z,19.45
2019-04-11T11:53:39.092Z,16.90
2019-04-11T11:56:09.547Z,14.33
2019-04-11T11:58:52.998Z,20.23
2019-04-11T12:01:17.766Z,18.62
2019-04-11T12:04:00.157Z,17.02
2019-04-11T12:06:27.149Z,16.15
2019-04-11T12:09:12.568Z,14.13
2019-04-11T12:11:46.310Z,18.77
2019-04-11T12:14:33.039Z,15.23
2019-04-11T12:17:06.795Z,15.95
2019-04-11T12:22:12.975Z,12.85
2019-04-11T12:24:58.657Z,16.65
2019-04-11T12:27:45.789Z,11.03
2019-04-11T12:30:20.819Z,16.55
2019-04-11T12:33:05.544Z,16.00
2019-04-11T12:35:50.686Z,14.28
2019-04-11T12:38:36.312Z,14.47
2019-04-11T12:41:22.890Z,16.32
2019-04-11T12:43:59.226Z,16.50
2019-04-11T12:46:45.696Z,17.12
2019-04-11T12:49:28.211Z,17.35
2019-04-11T12:52:15.143Z,16.17
2019-04-11T12:54:54.320Z,16.90
2019-04-11T12:57:33.798Z,17.67
2019-04-11T13:00:19.172Z,14.73
2019-04-11T13:03:01.948Z,19.20
2019-04-11T13:05:38.701Z,16.25
2019-04-11T13:08:08.979Z,16.67
2019-04-11T13:10:39.420Z,16.02
2019-04-11T13:13:25.851Z,14.30
2019-04-11T13:16:11.393Z,13.13
2019-04-11T13:18:40.028Z,18.23
2019-04-11T13:21:19.785Z,17.20
2019-04-11T13:23:58.940Z,17.90
2019-04-11T13:26:47.245Z,17.95
2019-04-11T13:29:25.921Z,16.57
2019-04-11T13:32:12.305Z,14.47
2019-04-11T13:34:45.212Z,20.40
2019-04-11T13:37:18.075Z,16.55
2019-04-11T13:39:48.289Z,17.98
2019-04-11T13:42:18.494Z,19.45
2019-04-11T13:44:46.973Z,20.43
2019-04-11T13:47:20.082Z,19.40
2019-04-11T13:49:50.265Z,17.33
2019-04-11T13:52:29.658Z,18.98
2019-04-11T13:55:03.376Z,17.07
2019-04-11T13:57:49.641Z,18.20
2019-04-11T14:00:36.030Z,20.80
2019-04-11T14:03:18.427Z,20.88
2019-04-11T14:05:48.594Z,21.27
2019-04-11T14:08:24.832Z,20.32
2019-04-11T14:11:04.084Z,20.45
2019-04-11T14:13:34.679Z,17.62
2019-04-11T14:16:11.472Z,15.18
2019-04-11T14:19:01.048Z,21.48
2019-04-11T14:21:31.514Z,15.48
2019-04-11T14:24:04.487Z,23.38
2019-04-11T14:26:37.991Z,18.85
2019-04-11T14:29:08.108Z,15.43
2019-04-11T14:31:38.420Z,20.68
2019-04-11T14:34:14.242Z,20.55
2019-04-11T14:36:59.553Z,21.75
2019-04-11T14:39:29.671Z,23.73
2019-04-11T14:42:11.796Z,21.45
2019-04-11T14:44:40.744Z,21.60
2019-04-11T14:47:16.631Z,13.05
2019-04-11T14:49:46.903Z,24.63
2019-04-11T14:52:35.556Z,20.23
2019-04-11T14:55:05.113Z,22.95
2019-04-11T14:57:37.995Z,21.90
2019-04-11T15:00:11.227Z,21.07
2019-04-11T15:02:47.398Z,16.27
2019-04-11T15:05:29.725Z,11.33
2019-04-11T15:07:58.378Z,15.05
2019-04-11T15:10:28.543Z,22.00
2019-04-11T15:12:57.209Z,15.15
2019-04-11T15:15:43.010Z,21.45
2019-04-11T15:18:11.622Z,21.10
2019-04-11T15:20:55.549Z,22.05
2019-04-11T15:23:28.346Z,22.85
2019-04-11T15:26:14.963Z,23.07
2019-04-11T15:28:54.176Z,18.80
2019-04-11T15:31:39.381Z,18.73
2019-04-11T15:37:04.496Z,8.70
2019-04-11T15:39:44.092Z,17.15
2019-04-11T15:42:09.282Z,20.20
2019-04-11T15:44:54.562Z,17.40
2019-04-11T15:47:24.911Z,19.62
2019-04-11T15:50:13.467Z,17.62
2019-04-11T15:52:44.042Z,14.25
2019-04-11T15:55:37.490Z,18.40
2019-04-11T15:58:05.824Z,20.80
2019-04-11T16:00:51.273Z,14.58
2019-04-11T16:03:19.853Z,18.45
2019-04-11T16:06:05.223Z,20.90
2019-04-11T16:08:38.768Z,19.42
2019-04-11T16:11:12.111Z,18.15
2019-04-11T16:13:57.818Z,18.10
2019-04-11T16:16:30.810Z,18.52
2019-04-11T16:19:17.178Z,19.15
2019-04-11T16:21:54.902Z,19.05
2019-04-11T16:24:34.721Z,17.90
2019-04-11T16:27:10.858Z,18.35
2019-04-11T16:29:53.059Z,17.95
2019-04-11T16:32:21.626Z,16.20
2019-04-11T16:34:55.746Z,9.45
2019-04-11T16:37:24.593Z,20.27
2019-04-11T16:40:10.969Z,20.85
2019-04-11T16:42:41.092Z,18.80
2019-04-11T16:45:27.846Z,18.80
2019-04-11T16:47:58.028Z,17.80
2019-04-11T16:50:26.508Z,17.30
2019-04-11T16:52:54.992Z,17.90
2019-04-11T16:55:23.498Z,18.95
2019-04-11T16:57:52.005Z,17.17
2019-04-11T17:00:26.564Z,17.32
2019-04-11T17:02:55.665Z,19.48
2019-04-11T17:05:26.740Z,20.23
2019-04-11T17:08:13.312Z,20.27
2019-04-11T17:11:01.631Z,17.12
2019-04-11T17:13:32.352Z,20.20
2019-04-11T17:16:01.811Z,17.37
2019-04-11T17:18:33.978Z,19.85
2019-04-11T17:21:00.607Z,18.48
2019-04-11T17:23:29.112Z,17.82
2019-04-11T17:25:57.726Z,18.65
2019-04-11T17:28:26.592Z,18.02
2019-04-11T17:30:55.925Z,19.80
2019-04-11T17:33:27.751Z,19.15
2019-04-11T17:35:54.952Z,20.62
2019-04-11T17:38:23.548Z,19.87
2019-04-11T17:40:52.193Z,21.80
2019-04-11T17:43:20.731Z,17.98
2019-04-11T17:45:49.256Z,21.00
2019-04-11T17:48:17.795Z,17.42
2019-04-11T17:50:46.643Z,17.23
2019-04-11T17:53:17.076Z,20.65
2019-04-11T17:55:45.580Z,19.57
2019-04-11T17:58:14.221Z,17.62
2019-04-11T18:00:44.491Z,19.57
2019-04-11T18:03:14.510Z,20.17
2019-04-11T18:05:46.847Z,18.42
2019-04-11T18:08:13.315Z,19.20
2019-04-11T18:13:35.298Z,18.48
2019-04-11T18:16:05.474Z,20.60
2019-04-11T18:18:35.178Z,19.57
2019-04-11T18:21:07.085Z,20.08
2019-04-11T18:23:36.010Z,19.65
2019-04-11T18:26:05.587Z,20.10
2019-04-11T18:28:34.092Z,20.10
2019-04-11T18:31:02.663Z,18.98
2019-04-11T18:33:31.759Z,19.07
2019-04-11T18:36:02.219Z,17.45
2019-04-11T18:38:31.994Z,22.40
2019-04-11T18:41:01.219Z,18.17
2019-04-11T18:43:29.823Z,19.67
2019-04-11T18:45:58.561Z,17.02
2019-04-11T18:48:27.318Z,20.02
2019-04-11T18:50:55.941Z,19.87
2019-04-11T18:53:24.550Z,22.45
2019-04-11T18:55:53.111Z,19.87
2019-04-11T18:58:21.550Z,19.92
2019-04-11T19:00:50.247Z,20.15
2019-04-11T19:03:18.950Z,18.80
2019-04-11T19:05:47.556Z,20.68
2019-04-11T19:08:16.089Z,21.85
2019-04-11T19:10:45.722Z,19.20
2019-04-11T19:13:16.925Z,17.10
2019-04-11T19:15:45.702Z,20.75
2019-04-11T19:18:16.416Z,18.48
2019-04-11T19:20:50.286Z,22.35
2019-04-11T19:25:49.034Z,20.43
2019-04-11T19:28:17.593Z,18.25
2019-04-11T19:30:46.236Z,20.55
2019-04-11T19:33:14.778Z,20.80
2019-04-11T19:35:43.912Z,22.48
2019-04-11T19:38:23.055Z,22.05
2019-04-11T19:40:51.571Z,22.58
2019-04-11T19:43:20.031Z,21.87
2019-04-11T19:45:50.066Z,24.30
2019-04-11T19:48:19.130Z,23.98
2019-04-11T19:50:51.423Z,22.70
2019-04-11T19:53:19.931Z,23.87
2019-04-11T19:55:52.223Z,24.85
2019-04-11T19:58:24.352Z,25.17
2019-04-11T20:00:53.925Z,30.10
2019-04-11T20:03:24.176Z,22.55
2019-04-11T20:05:52.804Z,23.30
2019-04-11T20:08:21.372Z,22.17
2019-04-11T20:10:49.840Z,25.75
2019-04-11T20:13:18.322Z,24.47
2019-04-11T20:15:46.822Z,24.20
2019-04-11T20:18:15.278Z,22.37
2019-04-11T20:20:43.839Z,22.85
2019-04-11T20:23:12.523Z,21.27
2019-04-11T20:25:41.004Z,22.75
2019-04-11T20:28:09.512Z,21.37
2019-04-11T20:30:37.978Z,22.75
2019-04-11T20:33:06.459Z,24.85
2019-04-11T20:35:34.944Z,26.48
2019-04-11T20:38:03.536Z,24.30
2019-04-11T20:40:32.122Z,23.60
2019-04-11T20:43:00.621Z,25.35
2019-04-11T20:45:30.761Z,26.70
2019-04-11T20:48:00.376Z,24.82
2019-04-11T20:50:29.424Z,26.62
2019-04-11T20:52:59.416Z,23.60
2019-04-11T20:55:28.253Z,30.62
2019-04-11T20:57:56.770Z,22.40
2019-04-11T21:00:25.420Z,24.70
2019-04-11T21:02:58.082Z,27.22
2019-04-11T21:05:24.653Z,29.60
2019-04-11T21:07:53.259Z,25.68
2019-04-11T21:10:21.889Z,26.35
2019-04-11T21:12:50.375Z,30.68
2019-04-11T21:15:18.883Z,31.20
2019-04-11T21:17:47.428Z,25.40
2019-04-11T21:20:15.933Z,28.52
2019-04-11T21:22:44.518Z,31.07
2019-04-11T21:25:13.116Z,27.77
2019-04-11T21:27:41.577Z,29.35
2019-04-11T21:30:11.204Z,33.13
2019-04-11T21:32:39.661Z,29.20
2019-04-11T21:35:08.286Z,27.52
2019-04-11T21:37:36.944Z,32.58
2019-04-11T21:40:08.696Z,30.65
2019-04-11T21:42:37.149Z,35.13
2019-04-11T21:45:06.856Z,31.27
2019-04-11T21:47:37.159Z,33.95
2019-04-11T21:50:09.395Z,31.45
2019-04-11T21:52:37.470Z,34.15
2019-04-11T21:55:06.173Z,35.05
2019-04-11T21:57:34.621Z,34.23
2019-04-11T22:00:04.695Z,35.70
2019-04-11T22:02:33.284Z,33.48
2019-04-11T22:05:01.822Z,33.58
2019-04-11T22:07:31.024Z,33.45
2019-04-11T22:10:00.077Z,33.48
2019-04-11T22:12:28.613Z,31.85
2019-04-11T22:14:57.139Z,34.20
2019-04-11T22:17:25.590Z,35.83
2019-04-11T22:19:54.059Z,34.48
2019-04-11T22:22:22.584Z,35.95
2019-04-11T22:24:51.023Z,38.55
2019-04-11T22:27:21.994Z,37.67
2019-04-11T22:29:49.652Z,34.88
2019-04-11T22:32:18.157Z,36.53
2019-04-11T22:34:47.175Z,34.92
2019-04-11T22:37:15.617Z,34.45
2019-04-11T22:39:44.083Z,33.73
2019-04-11T22:42:12.595Z,34.15
2019-04-11T22:44:41.071Z,35.10
2019-04-11T22:47:09.593Z,35.88
2019-04-11T22:49:39.330Z,36.58
2019-04-11T22:52:11.342Z,34.55
2019-04-11T22:54:41.198Z,34.27
2019-04-11T22:57:11.893Z,36.63
2019-04-11T22:59:44.030Z,40.85
2019-04-11T23:02:16.863Z,39.42
2019-04-11T23:04:46.965Z,38.40
2019-04-11T23:07:15.017Z,34.33
2019-04-11T23:09:48.538Z,36.68
2019-04-11T23:12:15.787Z,39.25
2019-04-11T23:14:45.821Z,33.92
2019-04-11T23:17:15.056Z,36.55
2019-04-11T23:19:44.141Z,37.20
2019-04-11T23:22:13.344Z,38.58
2019-04-11T23:24:41.795Z,37.35
2019-04-11T23:27:10.531Z,34.90
2019-04-11T23:29:38.981Z,37.55
2019-04-11T23:32:07.429Z,36.68
2019-04-11T23:34:35.889Z,35.68
2019-04-11T23:37:04.595Z,39.92
2019-04-11T23:39:33.072Z,37.67
2019-04-11T23:42:01.518Z,40.23
2019-04-11T23:44:30.013Z,39.27
2019-04-11T23:46:59.381Z,38.10
2019-04-11T23:49:27.823Z,37.38
2019-04-11T23:51:56.536Z,38.00
2019-04-11T23:54:28.906Z,38.75
2019-04-11T23:56:55.966Z,39.38
2019-04-11T23:59:24.491Z,42.38
